sensor_id;sensor_type;location;lat;lon;timestamp;P1;durP1;ratioP1;P2;durP2;ratioP2
31732;SDS011;18312;51.486;7.144;2023-07-08T00:02:09;3.53;;;1.98;;
31732;SDS011;18312;51.486;7.144;2023-07-08T00:04:37;3.40;;;2.10;;
31732;SDS011;18312;51.486;7.144;2023-07-08T00:07:05;4.55;;;2.13;;
31732;SDS011;18312;51.486;7.144;2023-07-08T00:09:35;3.45;;;1.67;;
31732;SDS011;18312;51.486;7.144;2023-07-08T00:12:04;5.75;;;2.38;;
31732;SDS011;18312;51.486;7.144;2023-07-08T00:14:34;2.60;;;1.75;;
31732;SDS011;18312;51.486;7.144;2023-07-08T00:17:02;3.63;;;2.63;;
31732;SDS011;18312;51.486;7.144;2023-07-08T00:19:30;3.58;;;1.85;;
31732;SDS011;18312;51.486;7.144;2023-07-08T00:21:57;4.25;;;2.10;;
31732;SDS011;18312;51.486;7.144;2023-07-08T00:24:24;10.63;;;2.33;;
31732;SDS011;18312;51.486;7.144;2023-07-08T00:26:50;6.20;;;2.10;;
31732;SDS011;18312;51.486;7.144;2023-07-08T00:29:17;4.28;;;2.22;;
31732;SDS011;18312;51.486;7.144;2023-07-08T00:31:44;3.92;;;2.47;;
31732;SDS011;18312;51.486;7.144;2023-07-08T00:34:12;5.82;;;2.10;;
31732;SDS011;18312;51.486;7.144;2023-07-08T00:36:40;19.95;;;2.25;;
31732;SDS011;18312;51.486;7.144;2023-07-08T00:39:09;3.13;;;2.00;;
31732;SDS011;18312;51.486;7.144;2023-07-08T00:41:40;4.78;;;2.03;;
31732;SDS011;18312;51.486;7.144;2023-07-08T00:44:08;5.25;;;2.15;;
31732;SDS011;18312;51.486;7.144;2023-07-08T00:46:40;4.20;;;1.98;;
31732;SDS011;18312;51.486;7.144;2023-07-08T00:49:21;3.78;;;1.60;;
31732;SDS011;18312;51.486;7.144;2023-07-08T00:51:54;3.22;;;1.40;;
31732;SDS011;18312;51.486;7.144;2023-07-08T00:54:21;5.75;;;1.50;;
31732;SDS011;18312;51.486;7.144;2023-07-08T00:56:48;6.72;;;2.03;;
31732;SDS011;18312;51.486;7.144;2023-07-08T00:59:20;3.97;;;1.42;;
31732;SDS011;18312;51.486;7.144;2023-07-08T01:01:50;1.95;;;1.48;;
31732;SDS011;18312;51.486;7.144;2023-07-08T01:04:18;5.38;;;2.13;;
31732;SDS011;18312;51.486;7.144;2023-07-08T01:06:49;3.28;;;2.08;;
31732;SDS011;18312;51.486;7.144;2023-07-08T01:09:22;3.17;;;1.58;;
31732;SDS011;18312;51.486;7.144;2023-07-08T01:11:53;3.83;;;1.98;;
31732;SDS011;18312;51.486;7.144;2023-07-08T01:14:22;2.35;;;1.95;;
31732;SDS011;18312;51.486;7.144;2023-07-08T01:16:53;3.40;;;1.80;;
31732;SDS011;18312;51.486;7.144;2023-07-08T01:19:20;5.80;;;2.08;;
31732;SDS011;18312;51.486;7.144;2023-07-08T01:22:01;3.83;;;1.98;;
31732;SDS011;18312;51.486;7.144;2023-07-08T01:24:29;5.72;;;2.28;;
31732;SDS011;18312;51.486;7.144;2023-07-08T01:26:57;5.50;;;1.52;;
31732;SDS011;18312;51.486;7.144;2023-07-08T01:29:25;4.70;;;1.95;;
31732;SDS011;18312;51.486;7.144;2023-07-08T01:31:54;5.38;;;2.10;;
31732;SDS011;18312;51.486;7.144;2023-07-08T01:34:21;3.65;;;1.73;;
31732;SDS011;18312;51.486;7.144;2023-07-08T01:36:49;4.90;;;2.03;;
31732;SDS011;18312;51.486;7.144;2023-07-08T01:39:21;5.72;;;2.53;;
31732;SDS011;18312;51.486;7.144;2023-07-08T01:41:52;5.40;;;2.42;;
31732;SDS011;18312;51.486;7.144;2023-07-08T01:44:25;3.60;;;1.48;;
31732;SDS011;18312;51.486;7.144;2023-07-08T01:46:54;2.65;;;2.17;;
31732;SDS011;18312;51.486;7.144;2023-07-08T01:49:22;8.20;;;1.83;;
31732;SDS011;18312;51.486;7.144;2023-07-08T01:51:49;7.65;;;2.10;;
31732;SDS011;18312;51.486;7.144;2023-07-08T01:54:16;2.35;;;1.95;;
31732;SDS011;18312;51.486;7.144;2023-07-08T01:56:44;2.15;;;1.48;;
31732;SDS011;18312;51.486;7.144;2023-07-08T01:59:11;2.88;;;2.15;;
31732;SDS011;18312;51.486;7.144;2023-07-08T02:01:38;3.28;;;1.85;;
31732;SDS011;18312;51.486;7.144;2023-07-08T02:04:04;5.38;;;2.10;;
31732;SDS011;18312;51.486;7.144;2023-07-08T02:06:31;3.00;;;2.30;;
31732;SDS011;18312;51.486;7.144;2023-07-08T02:08:58;6.80;;;2.00;;
31732;SDS011;18312;51.486;7.144;2023-07-08T02:11:24;5.50;;;1.90;;
31732;SDS011;18312;51.486;7.144;2023-07-08T02:13:52;3.50;;;1.83;;
31732;SDS011;18312;51.486;7.144;2023-07-08T02:16:19;2.40;;;1.73;;
31732;SDS011;18312;51.486;7.144;2023-07-08T02:18:46;4.30;;;1.92;;
31732;SDS011;18312;51.486;7.144;2023-07-08T02:21:12;3.97;;;2.17;;
31732;SDS011;18312;51.486;7.144;2023-07-08T02:23:43;4.53;;;1.75;;
31732;SDS011;18312;51.486;7.144;2023-07-08T02:26:10;5.32;;;1.75;;
31732;SDS011;18312;51.486;7.144;2023-07-08T02:28:37;3.78;;;1.83;;
31732;SDS011;18312;51.486;7.144;2023-07-08T02:31:05;5.30;;;1.88;;
31732;SDS011;18312;51.486;7.144;2023-07-08T02:33:31;5.85;;;2.00;;
31732;SDS011;18312;51.486;7.144;2023-07-08T02:35:58;3.10;;;1.83;;
31732;SDS011;18312;51.486;7.144;2023-07-08T02:38:25;3.58;;;1.70;;
31732;SDS011;18312;51.486;7.144;2023-07-08T02:40:52;3.85;;;1.77;;
31732;SDS011;18312;51.486;7.144;2023-07-08T02:43:19;3.35;;;1.73;;
31732;SDS011;18312;51.486;7.144;2023-07-08T02:45:48;4.15;;;2.42;;
31732;SDS011;18312;51.486;7.144;2023-07-08T02:48:16;3.85;;;1.60;;
31732;SDS011;18312;51.486;7.144;2023-07-08T02:50:43;4.63;;;2.15;;
31732;SDS011;18312;51.486;7.144;2023-07-08T02:53:10;3.33;;;1.73;;
31732;SDS011;18312;51.486;7.144;2023-07-08T02:55:37;3.78;;;2.28;;
31732;SDS011;18312;51.486;7.144;2023-07-08T02:58:04;5.25;;;1.77;;
31732;SDS011;18312;51.486;7.144;2023-07-08T03:00:31;2.38;;;1.52;;
31732;SDS011;18312;51.486;7.144;2023-07-08T03:02:57;2.65;;;1.45;;
31732;SDS011;18312;51.486;7.144;2023-07-08T03:05:26;2.67;;;1.70;;
31732;SDS011;18312;51.486;7.144;2023-07-08T03:07:52;3.05;;;1.88;;
31732;SDS011;18312;51.486;7.144;2023-07-08T03:10:19;5.25;;;2.45;;
31732;SDS011;18312;51.486;7.144;2023-07-08T03:12:46;3.08;;;1.95;;
31732;SDS011;18312;51.486;7.144;2023-07-08T03:15:12;2.13;;;1.60;;
31732;SDS011;18312;51.486;7.144;2023-07-08T03:17:39;6.13;;;2.65;;
31732;SDS011;18312;51.486;7.144;2023-07-08T03:20:07;5.45;;;1.98;;
31732;SDS011;18312;51.486;7.144;2023-07-08T03:22:36;4.25;;;1.90;;
31732;SDS011;18312;51.486;7.144;2023-07-08T03:25:03;3.40;;;2.42;;
31732;SDS011;18312;51.486;7.144;2023-07-08T03:27:31;3.55;;;1.95;;
31732;SDS011;18312;51.486;7.144;2023-07-08T03:29:57;4.53;;;2.38;;
31732;SDS011;18312;51.486;7.144;2023-07-08T03:32:24;4.47;;;2.20;;
31732;SDS011;18312;51.486;7.144;2023-07-08T03:34:51;4.35;;;2.20;;
31732;SDS011;18312;51.486;7.144;2023-07-08T03:37:18;4.88;;;2.35;;
31732;SDS011;18312;51.486;7.144;2023-07-08T03:39:46;4.95;;;2.17;;
31732;SDS011;18312;51.486;7.144;2023-07-08T03:42:13;3.85;;;2.13;;
31732;SDS011;18312;51.486;7.144;2023-07-08T03:44:40;4.30;;;2.17;;
31732;SDS011;18312;51.486;7.144;2023-07-08T03:47:07;4.15;;;2.45;;
31732;SDS011;18312;51.486;7.144;2023-07-08T03:49:34;8.82;;;2.20;;
31732;SDS011;18312;51.486;7.144;2023-07-08T03:52:00;4.75;;;2.13;;
31732;SDS011;18312;51.486;7.144;2023-07-08T03:54:27;4.40;;;2.38;;
31732;SDS011;18312;51.486;7.144;2023-07-08T03:56:55;5.25;;;2.42;;
31732;SDS011;18312;51.486;7.144;2023-07-08T03:59:22;4.68;;;2.33;;
31732;SDS011;18312;51.486;7.144;2023-07-08T04:01:48;5.03;;;2.20;;
31732;SDS011;18312;51.486;7.144;2023-07-08T04:04:15;3.97;;;2.00;;
31732;SDS011;18312;51.486;7.144;2023-07-08T04:06:42;2.80;;;2.03;;
31732;SDS011;18312;51.486;7.144;2023-07-08T04:09:10;5.60;;;2.20;;
31732;SDS011;18312;51.486;7.144;2023-07-08T04:11:37;6.47;;;2.65;;
31732;SDS011;18312;51.486;7.144;2023-07-08T04:14:05;8.82;;;2.40;;
31732;SDS011;18312;51.486;7.144;2023-07-08T04:16:37;5.50;;;2.15;;
31732;SDS011;18312;51.486;7.144;2023-07-08T04:19:12;2.92;;;1.92;;
31732;SDS011;18312;51.486;7.144;2023-07-08T04:21:40;2.85;;;1.88;;
31732;SDS011;18312;51.486;7.144;2023-07-08T04:24:08;3.13;;;1.95;;
31732;SDS011;18312;51.486;7.144;2023-07-08T04:29:19;9.13;;;3.67;;
31732;SDS011;18312;51.486;7.144;2023-07-08T04:31:47;6.05;;;2.40;;
31732;SDS011;18312;51.486;7.144;2023-07-08T04:34:14;3.70;;;1.98;;
31732;SDS011;18312;51.486;7.144;2023-07-08T04:36:41;5.63;;;2.75;;
31732;SDS011;18312;51.486;7.144;2023-07-08T04:39:08;6.32;;;2.25;;
31732;SDS011;18312;51.486;7.144;2023-07-08T04:41:36;3.78;;;2.30;;
31732;SDS011;18312;51.486;7.144;2023-07-08T04:44:05;3.05;;;1.58;;
31732;SDS011;18312;51.486;7.144;2023-07-08T04:46:35;4.78;;;2.35;;
31732;SDS011;18312;51.486;7.144;2023-07-08T04:49:05;5.13;;;2.65;;
31732;SDS011;18312;51.486;7.144;2023-07-08T04:51:34;4.88;;;2.33;;
31732;SDS011;18312;51.486;7.144;2023-07-08T04:54:01;4.65;;;2.55;;
31732;SDS011;18312;51.486;7.144;2023-07-08T04:56:34;5.85;;;2.00;;
31732;SDS011;18312;51.486;7.144;2023-07-08T04:59:04;5.25;;;3.28;;
31732;SDS011;18312;51.486;7.144;2023-07-08T05:01:33;2.92;;;2.05;;
31732;SDS011;18312;51.486;7.144;2023-07-08T05:04:00;4.85;;;2.55;;
31732;SDS011;18312;51.486;7.144;2023-07-08T05:06:28;11.50;;;2.00;;
31732;SDS011;18312;51.486;7.144;2023-07-08T05:08:54;6.20;;;2.95;;
31732;SDS011;18312;51.486;7.144;2023-07-08T05:11:21;5.28;;;2.70;;
31732;SDS011;18312;51.486;7.144;2023-07-08T05:13:48;3.33;;;2.58;;
31732;SDS011;18312;51.486;7.144;2023-07-08T05:16:15;4.45;;;2.78;;
31732;SDS011;18312;51.486;7.144;2023-07-08T05:18:43;5.80;;;2.67;;
31732;SDS011;18312;51.486;7.144;2023-07-08T05:21:10;4.65;;;2.33;;
31732;SDS011;18312;51.486;7.144;2023-07-08T05:23:37;5.47;;;2.50;;
31732;SDS011;18312;51.486;7.144;2023-07-08T05:26:05;6.85;;;2.58;;
31732;SDS011;18312;51.486;7.144;2023-07-08T05:28:33;4.68;;;2.42;;
31732;SDS011;18312;51.486;7.144;2023-07-08T05:31:00;6.13;;;2.80;;
31732;SDS011;18312;51.486;7.144;2023-07-08T05:33:27;4.93;;;2.97;;
31732;SDS011;18312;51.486;7.144;2023-07-08T05:35:57;8.05;;;2.33;;
31732;SDS011;18312;51.486;7.144;2023-07-08T05:38:24;5.20;;;2.40;;
31732;SDS011;18312;51.486;7.144;2023-07-08T05:40:53;4.47;;;2.70;;
31732;SDS011;18312;51.486;7.144;2023-07-08T05:43:21;2.90;;;2.33;;
31732;SDS011;18312;51.486;7.144;2023-07-08T05:45:48;4.07;;;2.50;;
31732;SDS011;18312;51.486;7.144;2023-07-08T05:48:15;5.43;;;2.28;;
31732;SDS011;18312;51.486;7.144;2023-07-08T05:50:42;3.90;;;2.53;;
31732;SDS011;18312;51.486;7.144;2023-07-08T05:53:12;3.60;;;2.55;;
31732;SDS011;18312;51.486;7.144;2023-07-08T05:55:40;3.93;;;1.83;;
31732;SDS011;18312;51.486;7.144;2023-07-08T05:58:07;4.45;;;2.65;;
31732;SDS011;18312;51.486;7.144;2023-07-08T06:00:35;7.40;;;2.08;;
31732;SDS011;18312;51.486;7.144;2023-07-08T06:03:01;3.90;;;2.78;;
31732;SDS011;18312;51.486;7.144;2023-07-08T06:05:28;5.38;;;2.92;;
31732;SDS011;18312;51.486;7.144;2023-07-08T06:07:55;2.40;;;1.80;;
31732;SDS011;18312;51.486;7.144;2023-07-08T06:10:23;5.03;;;2.63;;
31732;SDS011;18312;51.486;7.144;2023-07-08T06:12:50;3.75;;;2.15;;
31732;SDS011;18312;51.486;7.144;2023-07-08T06:15:17;3.75;;;2.72;;
31732;SDS011;18312;51.486;7.144;2023-07-08T06:17:44;6.53;;;3.03;;
31732;SDS011;18312;51.486;7.144;2023-07-08T06:20:10;3.47;;;2.47;;
31732;SDS011;18312;51.486;7.144;2023-07-08T06:22:37;5.30;;;3.13;;
31732;SDS011;18312;51.486;7.144;2023-07-08T06:25:04;4.47;;;2.80;;
31732;SDS011;18312;51.486;7.144;2023-07-08T06:27:33;4.18;;;2.35;;
31732;SDS011;18312;51.486;7.144;2023-07-08T06:30:00;6.97;;;2.70;;
31732;SDS011;18312;51.486;7.144;2023-07-08T06:32:26;5.68;;;2.60;;
31732;SDS011;18312;51.486;7.144;2023-07-08T06:34:53;4.50;;;2.13;;
31732;SDS011;18312;51.486;7.144;2023-07-08T06:37:20;7.20;;;2.70;;
31732;SDS011;18312;51.486;7.144;2023-07-08T06:39:46;5.18;;;2.28;;
31732;SDS011;18312;51.486;7.144;2023-07-08T06:42:13;2.42;;;2.20;;
31732;SDS011;18312;51.486;7.144;2023-07-08T06:44:41;3.42;;;2.38;;
31732;SDS011;18312;51.486;7.144;2023-07-08T06:47:15;9.30;;;2.45;;
31732;SDS011;18312;51.486;7.144;2023-07-08T06:49:42;4.15;;;2.42;;
31732;SDS011;18312;51.486;7.144;2023-07-08T06:52:08;3.20;;;2.33;;
31732;SDS011;18312;51.486;7.144;2023-07-08T06:54:35;5.20;;;2.70;;
31732;SDS011;18312;51.486;7.144;2023-07-08T06:57:02;6.35;;;2.95;;
31732;SDS011;18312;51.486;7.144;2023-07-08T06:59:29;5.40;;;2.50;;
31732;SDS011;18312;51.486;7.144;2023-07-08T07:01:57;5.50;;;2.50;;
31732;SDS011;18312;51.486;7.144;2023-07-08T07:04:24;5.45;;;2.97;;
31732;SDS011;18312;51.486;7.144;2023-07-08T07:06:50;4.38;;;2.67;;
31732;SDS011;18312;51.486;7.144;2023-07-08T07:09:17;4.60;;;2.80;;
31732;SDS011;18312;51.486;7.144;2023-07-08T07:11:44;3.20;;;2.70;;
31732;SDS011;18312;51.486;7.144;2023-07-08T07:14:11;5.60;;;2.63;;
31732;SDS011;18312;51.486;7.144;2023-07-08T07:16:37;7.32;;;3.15;;
31732;SDS011;18312;51.486;7.144;2023-07-08T07:19:05;6.50;;;3.03;;
31732;SDS011;18312;51.486;7.144;2023-07-08T07:21:32;7.07;;;2.63;;
31732;SDS011;18312;51.486;7.144;2023-07-08T07:23:59;9.32;;;2.75;;
31732;SDS011;18312;51.486;7.144;2023-07-08T07:26:26;4.53;;;2.80;;
31732;SDS011;18312;51.486;7.144;2023-07-08T07:28:53;4.60;;;2.85;;
31732;SDS011;18312;51.486;7.144;2023-07-08T07:31:19;3.35;;;2.60;;
31732;SDS011;18312;51.486;7.144;2023-07-08T07:33:46;4.38;;;2.75;;
31732;SDS011;18312;51.486;7.144;2023-07-08T07:36:15;6.43;;;2.97;;
31732;SDS011;18312;51.486;7.144;2023-07-08T07:38:41;6.47;;;3.00;;
31732;SDS011;18312;51.486;7.144;2023-07-08T07:41:08;8.23;;;2.92;;
31732;SDS011;18312;51.486;7.144;2023-07-08T07:43:35;4.15;;;2.58;;
31732;SDS011;18312;51.486;7.144;2023-07-08T07:46:02;4.90;;;3.20;;
31732;SDS011;18312;51.486;7.144;2023-07-08T07:48:30;3.65;;;2.42;;
31732;SDS011;18312;51.486;7.144;2023-07-08T07:50:57;5.03;;;2.70;;
31732;SDS011;18312;51.486;7.144;2023-07-08T07:53:27;8.68;;;3.45;;
31732;SDS011;18312;51.486;7.144;2023-07-08T07:55:57;4.85;;;3.13;;
31732;SDS011;18312;51.486;7.144;2023-07-08T07:58:24;5.53;;;2.85;;
31732;SDS011;18312;51.486;7.144;2023-07-08T08:00:51;3.88;;;2.53;;
31732;SDS011;18312;51.486;7.144;2023-07-08T08:03:17;9.88;;;3.33;;
31732;SDS011;18312;51.486;7.144;2023-07-08T08:05:45;5.22;;;3.08;;
31732;SDS011;18312;51.486;7.144;2023-07-08T08:08:13;6.53;;;3.33;;
31732;SDS011;18312;51.486;7.144;2023-07-08T08:10:41;3.85;;;3.22;;
31732;SDS011;18312;51.486;7.144;2023-07-08T08:13:08;9.60;;;3.20;;
31732;SDS011;18312;51.486;7.144;2023-07-08T08:15:35;5.00;;;2.92;;
31732;SDS011;18312;51.486;7.144;2023-07-08T08:18:02;5.10;;;3.30;;
31732;SDS011;18312;51.486;7.144;2023-07-08T08:20:29;9.50;;;3.55;;
31732;SDS011;18312;51.486;7.144;2023-07-08T08:22:56;5.80;;;3.10;;
31732;SDS011;18312;51.486;7.144;2023-07-08T08:25:23;4.97;;;3.92;;
31732;SDS011;18312;51.486;7.144;2023-07-08T08:27:51;5.25;;;3.28;;
31732;SDS011;18312;51.486;7.144;2023-07-08T08:30:18;9.82;;;3.60;;
31732;SDS011;18312;51.486;7.144;2023-07-08T08:32:45;5.50;;;3.20;;
31732;SDS011;18312;51.486;7.144;2023-07-08T08:35:12;7.55;;;3.22;;
31732;SDS011;18312;51.486;7.144;2023-07-08T08:37:39;6.80;;;4.40;;
31732;SDS011;18312;51.486;7.144;2023-07-08T08:40:07;7.38;;;3.40;;
31732;SDS011;18312;51.486;7.144;2023-07-08T08:42:39;6.63;;;3.97;;
31732;SDS011;18312;51.486;7.144;2023-07-08T08:45:10;5.05;;;3.85;;
31732;SDS011;18312;51.486;7.144;2023-07-08T08:47:41;8.85;;;4.00;;
31732;SDS011;18312;51.486;7.144;2023-07-08T08:50:16;5.78;;;3.67;;
31732;SDS011;18312;51.486;7.144;2023-07-08T08:52:52;7.20;;;3.80;;
31732;SDS011;18312;51.486;7.144;2023-07-08T08:55:20;6.43;;;3.50;;
31732;SDS011;18312;51.486;7.144;2023-07-08T08:57:49;7.07;;;3.53;;
31732;SDS011;18312;51.486;7.144;2023-07-08T09:00:24;5.20;;;3.65;;
31732;SDS011;18312;51.486;7.144;2023-07-08T09:02:57;7.38;;;4.20;;
31732;SDS011;18312;51.486;7.144;2023-07-08T09:05:29;5.15;;;3.20;;
31732;SDS011;18312;51.486;7.144;2023-07-08T09:08:00;5.53;;;3.65;;
31732;SDS011;18312;51.486;7.144;2023-07-08T09:10:35;6.60;;;3.70;;
31732;SDS011;18312;51.486;7.144;2023-07-08T09:13:10;8.30;;;3.80;;
31732;SDS011;18312;51.486;7.144;2023-07-08T09:15:45;5.85;;;3.67;;
31732;SDS011;18312;51.486;7.144;2023-07-08T09:18:15;5.53;;;4.05;;
31732;SDS011;18312;51.486;7.144;2023-07-08T09:20:48;7.32;;;4.40;;
31732;SDS011;18312;51.486;7.144;2023-07-08T09:23:19;7.18;;;4.18;;
31732;SDS011;18312;51.486;7.144;2023-07-08T09:25:52;9.63;;;4.32;;
31732;SDS011;18312;51.486;7.144;2023-07-08T09:31:16;8.50;;;4.05;;
31732;SDS011;18312;51.486;7.144;2023-07-08T09:33:50;7.85;;;4.18;;
31732;SDS011;18312;51.486;7.144;2023-07-08T09:36:25;8.45;;;3.95;;
31732;SDS011;18312;51.486;7.144;2023-07-08T09:38:58;6.18;;;3.67;;
31732;SDS011;18312;51.486;7.144;2023-07-08T09:41:29;8.15;;;4.13;;
31732;SDS011;18312;51.486;7.144;2023-07-08T09:44:05;7.00;;;3.95;;
31732;SDS011;18312;51.486;7.144;2023-07-08T09:46:43;6.40;;;4.13;;
31732;SDS011;18312;51.486;7.144;2023-07-08T09:49:17;7.55;;;3.65;;
31732;SDS011;18312;51.486;7.144;2023-07-08T09:51:47;7.80;;;4.07;;
31732;SDS011;18312;51.486;7.144;2023-07-08T09:54:15;6.30;;;4.00;;
31732;SDS011;18312;51.486;7.144;2023-07-08T09:56:54;6.80;;;3.83;;
31732;SDS011;18312;51.486;7.144;2023-07-08T09:59:26;7.57;;;4.53;;
31732;SDS011;18312;51.486;7.144;2023-07-08T10:02:00;6.88;;;3.45;;
31732;SDS011;18312;51.486;7.144;2023-07-08T10:04:28;6.47;;;3.92;;
31732;SDS011;18312;51.486;7.144;2023-07-08T10:06:59;7.82;;;3.65;;
31732;SDS011;18312;51.486;7.144;2023-07-08T10:09:26;5.63;;;3.58;;
31732;SDS011;18312;51.486;7.144;2023-07-08T10:11:54;5.97;;;3.38;;
31732;SDS011;18312;51.486;7.144;2023-07-08T10:14:26;4.68;;;2.97;;
31732;SDS011;18312;51.486;7.144;2023-07-08T10:16:57;4.03;;;3.05;;
31732;SDS011;18312;51.486;7.144;2023-07-08T10:19:25;6.53;;;2.80;;
31732;SDS011;18312;51.486;7.144;2023-07-08T10:21:55;5.18;;;2.92;;
31732;SDS011;18312;51.486;7.144;2023-07-08T10:24:40;5.43;;;3.22;;
31732;SDS011;18312;51.486;7.144;2023-07-08T10:27:21;4.43;;;2.90;;
31732;SDS011;18312;51.486;7.144;2023-07-08T10:29:53;2.97;;;2.70;;
31732;SDS011;18312;51.486;7.144;2023-07-08T10:32:27;4.05;;;2.92;;
31732;SDS011;18312;51.486;7.144;2023-07-08T10:35:04;4.30;;;2.53;;
31732;SDS011;18312;51.486;7.144;2023-07-08T10:37:41;9.00;;;3.30;;
31732;SDS011;18312;51.486;7.144;2023-07-08T10:45:31;3.60;;;2.13;;
31732;SDS011;18312;51.486;7.144;2023-07-08T10:48:09;3.55;;;2.58;;
31732;SDS011;18312;51.486;7.144;2023-07-08T10:50:51;5.13;;;3.35;;
31732;SDS011;18312;51.486;7.144;2023-07-08T10:53:33;4.07;;;2.97;;
31732;SDS011;18312;51.486;7.144;2023-07-08T10:56:12;4.68;;;2.75;;
31732;SDS011;18312;51.486;7.144;2023-07-08T10:58:51;5.32;;;2.92;;
31732;SDS011;18312;51.486;7.144;2023-07-08T11:01:34;6.00;;;2.63;;
31732;SDS011;18312;51.486;7.144;2023-07-08T11:04:16;6.30;;;3.00;;
31732;SDS011;18312;51.486;7.144;2023-07-08T11:06:58;7.43;;;2.70;;
31732;SDS011;18312;51.486;7.144;2023-07-08T11:09:33;6.55;;;2.63;;
31732;SDS011;18312;51.486;7.144;2023-07-08T11:12:04;4.38;;;2.67;;
31732;SDS011;18312;51.486;7.144;2023-07-08T11:14:45;5.38;;;3.13;;
31732;SDS011;18312;51.486;7.144;2023-07-08T11:17:16;5.18;;;2.97;;
31732;SDS011;18312;51.486;7.144;2023-07-08T11:19:50;6.90;;;2.60;;
31732;SDS011;18312;51.486;7.144;2023-07-08T11:22:24;6.03;;;3.17;;
31732;SDS011;18312;51.486;7.144;2023-07-08T11:24:54;8.02;;;3.17;;
31732;SDS011;18312;51.486;7.144;2023-07-08T11:27:24;5.38;;;3.05;;
31732;SDS011;18312;51.486;7.144;2023-07-08T11:29:54;3.20;;;2.47;;
31732;SDS011;18312;51.486;7.144;2023-07-08T11:32:24;4.57;;;2.47;;
31732;SDS011;18312;51.486;7.144;2023-07-08T11:34:53;4.97;;;2.92;;
31732;SDS011;18312;51.486;7.144;2023-07-08T11:37:21;4.47;;;2.38;;
31732;SDS011;18312;51.486;7.144;2023-07-08T11:39:54;3.47;;;2.42;;
31732;SDS011;18312;51.486;7.144;2023-07-08T11:42:25;5.07;;;3.03;;
31732;SDS011;18312;51.486;7.144;2023-07-08T11:45:00;5.80;;;3.00;;
31732;SDS011;18312;51.486;7.144;2023-07-08T11:47:33;3.78;;;2.50;;
31732;SDS011;18312;51.486;7.144;2023-07-08T11:50:04;6.32;;;2.90;;
31732;SDS011;18312;51.486;7.144;2023-07-08T11:52:47;6.00;;;2.85;;
31732;SDS011;18312;51.486;7.144;2023-07-08T11:55:22;3.97;;;2.60;;
31732;SDS011;18312;51.486;7.144;2023-07-08T11:57:53;4.63;;;2.65;;
31732;SDS011;18312;51.486;7.144;2023-07-08T12:02:51;4.82;;;3.42;;
31732;SDS011;18312;51.486;7.144;2023-07-08T12:05:31;8.10;;;2.80;;
31732;SDS011;18312;51.486;7.144;2023-07-08T12:07:59;4.53;;;2.90;;
31732;SDS011;18312;51.486;7.144;2023-07-08T12:10:32;5.03;;;2.33;;
31732;SDS011;18312;51.486;7.144;2023-07-08T12:13:01;4.20;;;2.65;;
31732;SDS011;18312;51.486;7.144;2023-07-08T12:15:29;6.55;;;3.45;;
31732;SDS011;18312;51.486;7.144;2023-07-08T12:17:58;5.68;;;2.95;;
31732;SDS011;18312;51.486;7.144;2023-07-08T12:20:30;4.63;;;2.90;;
31732;SDS011;18312;51.486;7.144;2023-07-08T12:22:59;4.30;;;2.63;;
31732;SDS011;18312;51.486;7.144;2023-07-08T12:25:27;4.63;;;2.70;;
31732;SDS011;18312;51.486;7.144;2023-07-08T12:27:59;5.65;;;2.65;;
31732;SDS011;18312;51.486;7.144;2023-07-08T12:30:27;5.95;;;2.92;;
31732;SDS011;18312;51.486;7.144;2023-07-08T12:32:56;3.17;;;2.53;;
31732;SDS011;18312;51.486;7.144;2023-07-08T12:35:26;6.18;;;2.88;;
31732;SDS011;18312;51.486;7.144;2023-07-08T12:37:55;4.82;;;2.90;;
31732;SDS011;18312;51.486;7.144;2023-07-08T12:40:25;4.45;;;2.88;;
31732;SDS011;18312;51.486;7.144;2023-07-08T12:42:54;5.70;;;2.90;;
31732;SDS011;18312;51.486;7.144;2023-07-08T12:45:22;6.18;;;2.47;;
31732;SDS011;18312;51.486;7.144;2023-07-08T12:47:50;4.70;;;2.83;;
31732;SDS011;18312;51.486;7.144;2023-07-08T12:50:17;4.03;;;2.28;;
31732;SDS011;18312;51.486;7.144;2023-07-08T12:52:44;3.60;;;2.40;;
31732;SDS011;18312;51.486;7.144;2023-07-08T12:55:12;3.63;;;2.38;;
31732;SDS011;18312;51.486;7.144;2023-07-08T12:57:40;3.60;;;2.13;;
31732;SDS011;18312;51.486;7.144;2023-07-08T13:00:14;3.55;;;2.38;;
31732;SDS011;18312;51.486;7.144;2023-07-08T13:02:44;7.10;;;3.20;;
31732;SDS011;18312;51.486;7.144;2023-07-08T13:05:13;4.43;;;2.13;;
31732;SDS011;18312;51.486;7.144;2023-07-08T13:07:41;4.03;;;2.65;;
31732;SDS011;18312;51.486;7.144;2023-07-08T13:10:15;5.05;;;2.55;;
31732;SDS011;18312;51.486;7.144;2023-07-08T13:12:44;4.80;;;2.55;;
31732;SDS011;18312;51.486;7.144;2023-07-08T13:15:15;9.10;;;2.88;;
31732;SDS011;18312;51.486;7.144;2023-07-08T13:17:46;5.22;;;3.25;;
31732;SDS011;18312;51.486;7.144;2023-07-08T13:20:14;5.80;;;2.90;;
31732;SDS011;18312;51.486;7.144;2023-07-08T13:22:41;4.97;;;2.67;;
31732;SDS011;18312;51.486;7.144;2023-07-08T13:25:12;8.23;;;2.90;;
31732;SDS011;18312;51.486;7.144;2023-07-08T13:27:42;4.82;;;2.83;;
31732;SDS011;18312;51.486;7.144;2023-07-08T13:30:15;4.78;;;3.13;;
31732;SDS011;18312;51.486;7.144;2023-07-08T13:32:47;8.65;;;2.83;;
31732;SDS011;18312;51.486;7.144;2023-07-08T13:35:22;5.53;;;3.17;;
31732;SDS011;18312;51.486;7.144;2023-07-08T13:37:50;5.63;;;2.85;;
31732;SDS011;18312;51.486;7.144;2023-07-08T13:40:17;6.10;;;3.22;;
31732;SDS011;18312;51.486;7.144;2023-07-08T13:42:47;5.28;;;2.75;;
31732;SDS011;18312;51.486;7.144;2023-07-08T13:45:17;2.67;;;2.28;;
31732;SDS011;18312;51.486;7.144;2023-07-08T13:47:57;3.70;;;2.40;;
31732;SDS011;18312;51.486;7.144;2023-07-08T13:50:25;4.20;;;2.28;;
31732;SDS011;18312;51.486;7.144;2023-07-08T13:52:57;2.50;;;2.05;;
31732;SDS011;18312;51.486;7.144;2023-07-08T13:55:24;5.85;;;2.88;;
31732;SDS011;18312;51.486;7.144;2023-07-08T13:57:56;5.97;;;2.63;;
31732;SDS011;18312;51.486;7.144;2023-07-08T14:00:26;4.30;;;2.00;;
31732;SDS011;18312;51.486;7.144;2023-07-08T14:02:55;3.38;;;2.55;;
31732;SDS011;18312;51.486;7.144;2023-07-08T14:05:23;3.67;;;3.13;;
31732;SDS011;18312;51.486;7.144;2023-07-08T14:07:50;4.13;;;2.38;;
31732;SDS011;18312;51.486;7.144;2023-07-08T14:10:16;4.68;;;3.03;;
31732;SDS011;18312;51.486;7.144;2023-07-08T14:12:43;7.10;;;3.50;;
31732;SDS011;18312;51.486;7.144;2023-07-08T14:15:10;7.78;;;2.40;;
31732;SDS011;18312;51.486;7.144;2023-07-08T14:17:38;5.35;;;3.50;;
31732;SDS011;18312;51.486;7.144;2023-07-08T14:20:08;3.90;;;2.40;;
31732;SDS011;18312;51.486;7.144;2023-07-08T14:22:36;3.47;;;2.65;;
31732;SDS011;18312;51.486;7.144;2023-07-08T14:25:04;4.82;;;2.50;;
31732;SDS011;18312;51.486;7.144;2023-07-08T14:27:34;3.17;;;2.30;;
31732;SDS011;18312;51.486;7.144;2023-07-08T14:30:00;8.63;;;2.83;;
31732;SDS011;18312;51.486;7.144;2023-07-08T14:32:29;4.15;;;2.42;;
31732;SDS011;18312;51.486;7.144;2023-07-08T14:34:59;2.78;;;2.22;;
31732;SDS011;18312;51.486;7.144;2023-07-08T14:37:41;3.92;;;2.25;;
31732;SDS011;18312;51.486;7.144;2023-07-08T14:40:18;4.78;;;2.83;;
31732;SDS011;18312;51.486;7.144;2023-07-08T14:42:50;5.47;;;2.20;;
31732;SDS011;18312;51.486;7.144;2023-07-08T14:45:22;4.40;;;2.78;;
31732;SDS011;18312;51.486;7.144;2023-07-08T14:47:49;7.00;;;2.90;;
31732;SDS011;18312;51.486;7.144;2023-07-08T14:50:17;5.15;;;2.92;;
31732;SDS011;18312;51.486;7.144;2023-07-08T14:52:44;6.30;;;2.70;;
31732;SDS011;18312;51.486;7.144;2023-07-08T14:55:10;5.03;;;2.75;;
31732;SDS011;18312;51.486;7.144;2023-07-08T14:57:41;3.35;;;2.85;;
31732;SDS011;18312;51.486;7.144;2023-07-08T15:00:11;4.40;;;2.30;;
31732;SDS011;18312;51.486;7.144;2023-07-08T15:02:40;6.03;;;2.55;;
31732;SDS011;18312;51.486;7.144;2023-07-08T15:05:11;4.70;;;2.70;;
31732;SDS011;18312;51.486;7.144;2023-07-08T15:07:42;5.10;;;2.25;;
31732;SDS011;18312;51.486;7.144;2023-07-08T15:10:09;4.20;;;2.23;;
31732;SDS011;18312;51.486;7.144;2023-07-08T15:12:37;7.22;;;3.08;;
31732;SDS011;18312;51.486;7.144;2023-07-08T15:15:08;3.95;;;2.42;;